Nearby METAR Reports

 

KRUE - Russellville, Arkansas, USA
Distance from station: ESE 28mi, 45km
Updated: Thu, 15-Nov-2018 3:53pm CST
Clear
Clear
 Wind from calm
Wind: Calm
Temperature: 52°F , 11°C
Dew Point: 21°F , -6°C
Humidity: 30%
Barometer: 30.10 inHg , 1019.3 hPa
Clouds: Clear
Visibility: 10 miles , 16 km
2018/11/15 21:53 KRUE 152153Z AUTO 00000KT 10SM CLR 11/M06 A3010 RMK AO2 SLP191 T01111056
KFSM - Fort Smith, Arkansas, USA
Distance from station: W 48mi, 77km
Updated: Thu, 15-Nov-2018 3:53pm CST
Clear
Clear
 Wind from SSW
Wind: SSW 5 mph , 7 km/h
Temperature: 57°F , 14°C
Dew Point: 27°F , -3°C
Humidity: 31%
Barometer: 30.08 inHg , 1018.6 hPa
Clouds: Clear
Visibility: 10 miles , 16 km
2018/11/15 21:53 KFSM 152153Z 20004KT 10SM CLR 14/M03 A3008 RMK AO2 SLP186 T01441028
 
KFYV - Fayetteville, Arkansas, USA
Distance from station: NW 52mi, 84km
Updated: Thu, 15-Nov-2018 3:53pm CST
Clear
Clear
 Wind from S
Wind: S 10 mph , 17 km/h
Temperature: 52°F , 11°C
Dew Point: 27°F , -3°C
Humidity: 38%
Barometer: 30.05 inHg , 1017.6 hPa
Clouds: Clear
Visibility: 10 miles , 16 km
2018/11/15 21:53 KFYV 152153Z 19009KT 10SM CLR 11/M03 A3005 RMK AO2 SLP183 T01111033
KASG - Springdale Muni, Arkansas, USA
Distance from station: NW 59mi, 95km
Updated: Thu, 15-Nov-2018 3:48pm CST
Clear
Clear
 Wind from SW
Wind: SW 9 mph , 15 km/h
Temperature: 54°F , 12°C
Dew Point: 25°F , -4°C
Humidity: 33%
Barometer: 30.05 inHg , 1017.6 hPa
Clouds: Clear
Visibility: 10 miles , 16 km
2018/11/15 21:48 KASG 152148Z 22008KT 10SM CLR 12/M04 A3005
 
KHRO - Harrison, Arkansas, USA
Distance from station: NNE 60mi, 96km
Updated: Thu, 15-Nov-2018 3:53pm CST
Clear
Clear
 Wind from W
Wind: W 6 mph , 9 km/h
Temperature: 55°F , 13°C
Dew Point: 27°F , -3°C
Humidity: 33%
Barometer: 30.03 inHg , 1016.9 hPa
Clouds: Clear
Visibility: 10 miles , 16 km
2018/11/15 21:53 KHRO 152153Z AUTO 26005KT 10SM CLR 13/M03 A3003 RMK AO2 SLP173 T01281033
KCCA - Clinton Muni, Arkansas, USA
Distance from station: E 61mi, 99km
Updated: Thu, 15-Nov-2018 4:35pm CST
Clear
Clear
 Wind from SW
Wind: SW 7 mph , 11 km/h
Temperature: 50°F , 10°C
Wind Chill: 47°F , 8°C
Dew Point: 23°F , -5°C
Humidity: 35%
Barometer: 30.09 inHg , 1019 hPa
Clouds: Clear
Visibility: 10 miles , 16 km
2018/11/15 22:35 KCCA 152235Z AUTO 22006KT 10SM CLR 10/M05 A3009 RMK AO2